Time;durP1;ratioP1;P1;durP2;ratioP2;P2;SDS_P1;SDS_P2;PMS_P1;PMS_P2;Temp;Humidity;BMP_temperature;BMP_pressure;BME280_temperature;BME280_humidity;BME280_pressure;Samples;Min_cycle;Max_cycle;Signal;HPM_P1;HPM_P2
2023/10/08 00:00:55;;;;;;;6.07;2.92;;;;;;;24.37;39.01;99793.38;4483494;32;34779;-67
2023/10/08 00:03:29;;;;;;;7.78;4.00;;;;;;;24.36;39.02;99788.97;4484251;32;33667;-66
2023/10/08 00:05:56;;;;;;;10.02;3.53;;;;;;;24.36;38.96;99783.53;4484518;32;33587;-66
2023/10/08 00:08:24;;;;;;;7.18;3.37;;;;;;;24.36;38.92;99779.94;4484513;32;34369;-66
2023/10/08 00:10:53;;;;;;;6.22;3.47;;;;;;;24.35;38.92;99773.66;4484492;32;34133;-65
2023/10/08 00:13:21;;;;;;;6.37;3.33;;;;;;;24.36;38.92;99769.03;4484603;32;34712;-65
2023/10/08 00:15:52;;;;;;;7.97;3.62;;;;;;;24.35;38.76;99765.47;4484163;32;34180;-67
2023/10/08 00:18:22;;;;;;;6.43;3.47;;;;;;;24.36;38.85;99767.16;4484482;32;33721;-69
2023/10/08 00:21:16;;;;;;;8.40;3.87;;;;;;;24.35;38.89;99759.19;4483262;32;34783;-65
2023/10/08 00:23:49;;;;;;;6.12;3.30;;;;;;;24.36;38.92;99760.84;4483738;32;33886;-65
2023/10/08 00:26:27;;;;;;;6.32;3.22;;;;;;;24.36;38.90;99755.41;4484320;32;33404;-65
2023/10/08 00:28:59;;;;;;;8.05;3.35;;;;;;;24.35;38.94;99761.94;4484318;32;34719;-69
2023/10/08 00:31:31;;;;;;;6.72;3.15;;;;;;;24.35;38.95;99753.75;4484365;32;33828;-65
2023/10/08 00:33:59;;;;;;;7.22;3.17;;;;;;;24.35;38.96;99760.03;4455071;32;33498;-69
2023/10/08 00:36:26;;;;;;;6.68;3.40;;;;;;;24.39;38.94;99757.69;4468673;32;34269;-70
2023/10/08 00:38:58;;;;;;;6.40;3.33;;;;;;;24.35;39.00;99761.94;4478392;32;33858;-66
2023/10/08 00:41:31;;;;;;;8.27;3.25;;;;;;;24.35;39.02;99757.31;4484266;32;33910;-65
2023/10/08 00:44:00;;;;;;;6.85;3.10;;;;;;;24.35;39.01;99751.84;4482976;32;33931;-68
2023/10/08 00:46:32;;;;;;;9.43;3.50;;;;;;;24.37;38.96;99748.91;4484082;32;33992;-66
2023/10/08 00:51:47;;;;;;;7.82;3.17;;;;;;;24.32;38.98;99735.94;4483062;32;33559;-66
2023/10/08 00:54:17;;;;;;;6.53;3.25;;;;;;;24.33;38.95;99742.22;4483948;32;33918;-69
2023/10/08 00:59:15;;;;;;;6.95;3.30;;;;;;;24.33;38.86;99744.94;4483989;32;33981;-71
2023/10/08 01:01:51;;;;;;;6.43;3.17;;;;;;;24.31;38.83;99747.09;4483982;32;33970;-70
2023/10/08 01:04:22;;;;;;;6.50;3.40;;;;;;;24.31;38.77;99744.38;4481853;32;33878;-70
2023/10/08 01:06:54;;;;;;;6.80;3.10;;;;;;;24.33;38.73;99742.22;4482862;32;33362;-71
2023/10/08 01:09:30;;;;;;;6.70;3.08;;;;;;;24.33;38.68;99739.50;4483844;32;35204;-70
2023/10/08 01:14:53;;;;;;;9.90;3.78;;;;;;;24.35;38.72;99734.66;4482602;32;34472;-71
2023/10/08 01:17:26;;;;;;;7.93;3.65;;;;;;;24.38;38.80;99734.19;4483801;32;33316;-71
2023/10/08 01:20:19;;;;;;;6.47;3.33;;;;;;;24.33;38.91;99726.69;4482489;32;34671;-72
2023/10/08 01:22:45;;;;;;;6.25;3.53;;;;;;;24.37;38.98;99732.53;4483646;32;34069;-72
2023/10/08 01:25:21;;;;;;;8.82;3.10;;;;;;;24.32;39.01;99722.31;4483733;32;34166;-71
2023/10/08 01:27:49;;;;;;;7.35;3.22;;;;;;;24.32;38.96;99721.47;4483796;32;33338;-71
2023/10/08 01:30:20;;;;;;;8.38;3.45;;;;;;;24.32;39.00;99716.03;4483657;32;33940;-72
2023/10/08 01:32:47;;;;;;;6.72;3.58;;;;;;;24.35;38.96;99721.03;4483401;32;33974;-72
2023/10/08 01:35:22;;;;;;;8.85;3.50;;;;;;;24.40;39.05;99715.72;4483320;32;33980;-69
2023/10/08 01:37:51;;;;;;;5.55;2.70;;;;;;;24.35;39.01;99708.22;4483511;32;33696;-72
2023/10/08 01:40:18;;;;;;;6.65;3.05;;;;;;;24.35;39.04;99705.47;4483365;32;33576;-72
2023/10/08 01:42:46;;;;;;;8.43;2.78;;;;;;;24.36;39.07;99703.59;4482157;32;34778;-68
2023/10/08 01:45:17;;;;;;;6.70;3.20;;;;;;;24.33;39.04;99709.50;4483288;32;34204;-71
2023/10/08 01:47:45;;;;;;;6.37;3.17;;;;;;;24.33;39.10;99704.03;4483151;32;33752;-72
2023/10/08 01:50:22;;;;;;;9.48;3.40;;;;;;;24.32;39.01;99700.50;4483294;32;34591;-72
2023/10/08 01:52:53;;;;;;;8.80;3.50;;;;;;;24.30;38.92;99699.09;4483357;32;33718;-72
2023/10/08 01:55:22;;;;;;;8.43;3.70;;;;;;;24.31;38.93;99687.09;4481920;32;34706;-71
2023/10/08 01:57:51;;;;;;;8.88;2.92;;;;;;;24.30;38.86;99688.19;4482234;32;33232;-72
2023/10/08 02:00:19;;;;;;;7.85;3.75;;;;;;;24.29;38.86;99687.31;4481973;32;33734;-71
2023/10/08 02:02:51;;;;;;;7.93;2.92;;;;;;;24.30;38.87;99678.09;4483204;32;34881;-72
2023/10/08 02:05:19;;;;;;;5.75;2.97;;;;;;;24.29;38.79;99690.03;4482939;32;34763;-72
2023/10/08 02:07:46;;;;;;;6.97;3.10;;;;;;;24.31;38.92;99676.19;4482990;32;34757;-73
2023/10/08 02:10:14;;;;;;;5.82;3.22;;;;;;;24.33;39.00;99672.16;4481737;32;33571;-70
2023/10/08 02:12:42;;;;;;;9.70;3.33;;;;;;;24.32;38.97;99675.13;4482808;32;33978;-69
2023/10/08 02:15:13;;;;;;;10.35;3.53;;;;;;;24.31;39.09;99678.91;4483426;32;34740;-70
2023/10/08 02:17:41;;;;;;;8.05;2.80;;;;;;;24.28;38.91;99682.09;4485550;32;33631;-71
2023/10/08 02:20:09;;;;;;;8.75;3.42;;;;;;;24.30;39.03;99680.00;4485091;32;34157;-71
2023/10/08 02:22:36;;;;;;;7.55;3.22;;;;;;;24.29;38.97;99675.59;4485488;32;34787;-70
2023/10/08 02:25:05;;;;;;;6.93;3.25;;;;;;;24.32;38.90;99669.66;4485231;32;33623;-65
2023/10/08 02:27:33;;;;;;;7.07;3.37;;;;;;;24.30;38.95;99658.19;4485312;31;33145;-65
2023/10/08 02:30:03;;;;;;;5.55;2.97;;;;;;;24.30;38.97;99656.28;4485151;32;34647;-65
2023/10/08 02:32:31;;;;;;;6.62;2.80;;;;;;;24.30;38.85;99660.91;4485157;32;33774;-65
2023/10/08 02:35:00;;;;;;;6.07;3.25;;;;;;;24.27;38.72;99666.81;4483911;32;33755;-65
2023/10/08 02:37:28;;;;;;;8.80;3.20;;;;;;;24.29;38.83;99661.94;4483899;32;33782;-65
2023/10/08 02:39:57;;;;;;;8.00;3.08;;;;;;;24.29;38.83;99657.31;4485106;32;33521;-65
2023/10/08 02:42:25;;;;;;;6.35;3.10;;;;;;;24.29;38.97;99651.88;4484940;32;34620;-70
2023/10/08 02:44:53;;;;;;;6.70;2.92;;;;;;;24.30;38.84;99655.44;4485015;32;33332;-70
2023/10/08 02:47:21;;;;;;;6.35;2.83;;;;;;;24.31;38.95;99644.31;4485040;32;34005;-70
2023/10/08 02:49:49;;;;;;;6.95;3.05;;;;;;;24.30;38.94;99650.00;4471043;32;33220;-71
2023/10/08 02:52:17;;;;;;;9.10;2.62;;;;;;;24.33;38.84;99650.34;4485029;32;33896;-70
2023/10/08 02:54:45;;;;;;;6.05;2.85;;;;;;;24.33;38.84;99655.78;4483591;32;34514;-70
2023/10/08 02:57:16;;;;;;;6.18;3.28;;;;;;;24.30;38.88;99659.00;4484891;32;33723;-67
2023/10/08 02:59:44;;;;;;;9.73;3.20;;;;;;;24.27;38.91;99667.66;4484893;32;33954;-66
2023/10/08 03:02:18;;;;;;;5.80;2.97;;;;;;;24.26;38.78;99654.25;4485104;32;33913;-66
2023/10/08 03:04:52;;;;;;;11.48;3.28;;;;;;;24.28;38.83;99643.94;4483751;32;34565;-70
2023/10/08 03:07:31;;;;;;;6.57;2.90;;;;;;;24.30;39.02;99647.28;4471704;32;34582;-69
2023/10/08 03:10:18;;;;;;;6.03;3.10;;;;;;;24.29;38.77;99645.59;4483664;32;32268;-72
2023/10/08 03:12:46;;;;;;;5.28;2.87;;;;;;;24.32;38.72;99637.78;4484652;32;33920;-68
2023/10/08 03:15:27;;;;;;;5.28;2.65;;;;;;;24.29;38.83;99640.13;4457813;32;33287;-71
2023/10/08 03:17:57;;;;;;;6.60;3.17;;;;;;;24.29;38.91;99640.97;4484674;32;33817;-70
2023/10/08 03:23:22;;;;;;;6.97;3.30;;;;;;;24.29;38.78;99629.22;4483397;32;33932;-68
2023/10/08 03:26:09;;;;;;;6.28;3.10;;;;;;;24.27;38.78;99617.75;4483598;32;33686;-65
2023/10/08 03:28:41;;;;;;;5.78;3.05;;;;;;;24.29;39.03;99621.06;4484071;32;34375;-69
2023/10/08 03:31:17;;;;;;;6.53;3.17;;;;;;;24.25;38.93;99633.50;4483608;32;33817;-71
2023/10/08 03:33:51;;;;;;;5.25;2.78;;;;;;;24.24;39.00;99619.03;4484744;32;33930;-72
2023/10/08 03:36:33;;;;;;;5.12;3.00;;;;;;;24.24;39.01;99620.94;4484609;32;33949;-70
2023/10/08 03:39:12;;;;;;;8.98;3.10;;;;;;;24.22;38.85;99612.16;4484533;32;33449;-69
2023/10/08 03:41:41;;;;;;;6.82;3.20;;;;;;;24.26;38.99;99621.53;4484727;32;34423;-71
2023/10/08 03:44:16;;;;;;;5.45;3.05;;;;;;;24.24;38.91;99601.84;4470698;32;33654;-71
2023/10/08 03:46:46;;;;;;;5.22;2.67;;;;;;;24.26;38.99;99602.47;4483421;32;33797;-71
2023/10/08 03:49:24;;;;;;;6.35;3.22;;;;;;;24.24;39.00;99599.94;4484549;31;33155;-72
2023/10/08 03:51:52;;;;;;;7.07;2.78;;;;;;;24.27;39.01;99595.94;4484503;32;33738;-72
2023/10/08 03:54:29;;;;;;;6.53;3.03;;;;;;;24.22;38.96;99588.47;4483507;32;33781;-70
2023/10/08 03:56:57;;;;;;;4.55;2.58;;;;;;;24.19;38.89;99570.66;4483211;32;34572;-68
2023/10/08 03:59:31;;;;;;;6.03;2.75;;;;;;;24.21;38.95;99588.72;4484601;32;33263;-70
2023/10/08 04:02:13;;;;;;;6.75;2.95;;;;;;;24.23;38.89;99584.66;4484607;32;34702;-71
2023/10/08 04:04:51;;;;;;;7.05;3.35;;;;;;;24.20;38.79;99582.41;4471815;32;33954;-72
2023/10/08 04:07:38;;;;;;;5.45;2.40;;;;;;;24.21;38.86;99591.44;4484606;32;33722;-73
2023/10/08 04:12:43;;;;;;;6.32;2.92;;;;;;;24.21;38.91;99581.34;4484427;32;34538;-73
2023/10/08 04:15:16;;;;;;;6.28;3.15;;;;;;;24.25;38.87;99576.25;4484465;32;33685;-72
2023/10/08 04:17:44;;;;;;;6.25;3.05;;;;;;;24.20;38.82;99576.94;4483178;32;34746;-69
2023/10/08 04:23:02;;;;;;;5.78;3.30;;;;;;;24.23;38.75;99584.66;4483197;32;33571;-70
2023/10/08 04:25:32;;;;;;;5.43;2.92;;;;;;;24.19;38.78;99578.84;4470312;32;33884;-67
2023/10/08 04:28:00;;;;;;;5.37;3.03;;;;;;;24.20;38.79;99574.22;4483202;32;33795;-71
2023/10/08 04:30:34;;;;;;;6.93;2.70;;;;;;;24.19;38.72;99576.13;4483212;32;33235;-71
2023/10/08 04:33:06;;;;;;;6.10;3.05;;;;;;;24.21;38.76;99578.62;4484254;32;33394;-72
2023/10/08 04:35:47;;;;;;;5.50;2.70;;;;;;;24.17;38.80;99583.72;4483033;32;33929;-72
2023/10/08 04:38:18;;;;;;;7.10;3.20;;;;;;;24.18;38.77;99582.66;4483706;32;33818;-72
2023/10/08 04:40:50;;;;;;;7.75;2.95;;;;;;;24.19;38.73;99578.84;4469964;32;33342;-69
2023/10/08 04:43:25;;;;;;;6.00;3.22;;;;;;;24.19;38.64;99580.75;4483902;32;33670;-66
2023/10/08 04:45:57;;;;;;;7.28;2.87;;;;;;;24.19;38.75;99567.94;4483016;32;34651;-67
2023/10/08 04:48:27;;;;;;;7.68;2.97;;;;;;;24.18;38.64;99568.19;4482843;32;33942;-71
2023/10/08 04:51:02;;;;;;;9.00;3.62;;;;;;;24.21;38.64;99578.62;4470252;32;33177;-70
2023/10/08 04:53:36;;;;;;;5.70;2.87;;;;;;;24.21;38.63;99577.81;4470860;32;34507;-71
2023/10/08 04:56:05;;;;;;;6.30;2.90;;;;;;;24.23;38.64;99573.75;4483874;32;33534;-69
2023/10/08 04:58:36;;;;;;;7.32;2.97;;;;;;;24.18;38.63;99577.19;4482886;32;34544;-71
2023/10/08 05:04:23;;;;;;;6.68;2.85;;;;;;;24.17;38.60;99570.09;4483968;32;34633;-71
2023/10/08 05:20:01;;;;;;;7.95;3.28;;;;;;;24.18;38.60;99563.56;4482707;32;33892;-72
2023/10/08 06:07:50;;;;;;;9.93;3.28;;;;;;;24.15;37.96;99624.03;4482150;32;33560;-65
2023/10/08 06:13:26;;;;;;;7.57;3.55;;;;;;;24.22;38.01;99615.72;4470521;32;34597;-65
2023/10/08 06:18:29;;;;;;;6.18;3.25;;;;;;;24.17;38.10;99640.97;4479511;32;33817;-65
2023/10/08 06:20:59;;;;;;;8.57;3.30;;;;;;;24.14;38.07;99641.44;4484726;32;34752;-68
2023/10/08 06:23:31;;;;;;;7.40;2.83;;;;;;;24.14;37.99;99646.06;4481300;32;33570;-65
2023/10/08 06:26:05;;;;;;;9.63;3.33;;;;;;;24.14;37.79;99655.06;4483330;32;33342;-70
2023/10/08 06:28:35;;;;;;;9.70;3.35;;;;;;;24.14;37.87;99646.88;4479330;32;33419;-65
2023/10/08 06:31:11;;;;;;;6.78;2.97;;;;;;;24.14;37.81;99646.88;4478152;32;34030;-65
2023/10/08 06:33:40;;;;;;;6.37;3.58;;;;;;;24.14;37.81;99652.34;4468647;32;34257;-65
2023/10/08 06:38:41;;;;;;;8.27;2.95;;;;;;;24.15;37.83;99655.88;4481123;32;34659;-66
2023/10/08 06:44:02;;;;;;;8.02;3.45;;;;;;;24.15;38.11;99666.78;4467646;32;34580;-67
2023/10/08 06:46:34;;;;;;;9.95;3.55;;;;;;;24.15;38.00;99664.91;4476696;32;33156;-69
2023/10/08 06:49:03;;;;;;;9.60;3.55;;;;;;;24.16;37.87;99671.19;4470705;32;33901;-71
2023/10/08 06:51:32;;;;;;;7.78;3.15;;;;;;;24.15;38.01;99661.34;4483072;32;34795;-70
2023/10/08 06:54:02;;;;;;;8.13;3.50;;;;;;;24.17;37.92;99673.69;4484515;32;33424;-70
2023/10/08 06:56:33;;;;;;;;;;;;;;;24.17;37.75;99679.13;4483286;32;34383;-68
2023/10/08 06:59:01;;;;;;;9.30;3.72;;;;;;;24.27;37.50;99683.19;4473804;32;34906;-69
2023/10/08 07:01:38;;;;;;;10.88;3.12;;;;;;;24.19;37.58;99679.72;4467871;32;33905;-72
2023/10/08 07:04:11;;;;;;;8.52;3.58;;;;;;;24.18;37.64;99666.34;4467719;32;33681;-71
2023/10/08 07:06:40;;;;;;;9.52;3.20;;;;;;;24.17;37.87;99661.94;4468749;32;33452;-73
2023/10/08 07:09:22;;;;;;;7.93;3.35;;;;;;;24.17;37.89;99670.12;4467503;32;33975;-65
2023/10/08 07:11:54;;;;;;;8.10;3.47;;;;;;;24.17;37.98;99670.12;4468546;32;34456;-65
2023/10/08 07:14:27;;;;;;;7.53;3.40;;;;;;;24.17;37.94;99668.22;4467502;32;33902;-65
2023/10/08 07:16:59;;;;;;;10.15;3.65;;;;;;;24.16;37.86;99661.12;4454557;32;33411;-65
2023/10/08 07:19:36;;;;;;;7.20;3.35;;;;;;;24.17;37.84;99651.03;4466976;32;33869;-65
2023/10/08 07:22:18;;;;;;;8.23;3.53;;;;;;;24.19;37.90;99659.81;4466956;32;33782;-65
2023/10/08 07:24:50;;;;;;;7.57;3.65;;;;;;;24.18;37.85;99658.97;4468643;32;33874;-66
2023/10/08 07:27:24;;;;;;;6.60;3.25;;;;;;;24.19;37.93;99648.91;4468546;32;33203;-65
2023/10/08 07:29:55;;;;;;;9.45;3.78;;;;;;;24.19;38.00;99662.53;4467322;32;33515;-65
2023/10/08 07:32:25;;;;;;;6.93;3.17;;;;;;;24.19;37.88;99652.44;4472842;32;33504;-66
2023/10/08 07:35:04;;;;;;;10.55;3.75;;;;;;;24.19;38.02;99660.63;4470082;32;33558;-66
2023/10/08 07:37:32;;;;;;;10.48;3.75;;;;;;;24.21;37.89;99662.31;4483710;32;33113;-68
2023/10/08 07:40:03;;;;;;;10.48;3.50;;;;;;;24.22;37.68;99661.25;4483986;31;33160;-67
2023/10/08 07:42:31;;;;;;;8.73;3.47;;;;;;;24.21;37.79;99665.87;4484315;32;35281;-70
2023/10/08 07:45:00;;;;;;;6.30;3.50;;;;;;;24.20;37.72;99666.91;4482832;32;34009;-67
2023/10/08 07:47:29;;;;;;;12.80;3.40;;;;;;;24.21;37.71;99652.25;4483907;32;34441;-66
2023/10/08 07:49:58;;;;;;;10.15;3.95;;;;;;;24.22;37.62;99659.34;4482916;32;33831;-71
2023/10/08 07:52:29;;;;;;;16.62;3.55;;;;;;;24.22;37.78;99655.78;4484173;32;34519;-67
2023/10/08 07:54:56;;;;;;;10.23;3.47;;;;;;;24.21;37.79;99654.97;4482709;32;34021;-74
2023/10/08 07:57:27;;;;;;;12.40;3.53;;;;;;;24.21;37.95;99651.41;4483898;32;32670;-75
2023/10/08 08:00:01;;;;;;;10.00;3.37;;;;;;;24.17;38.10;99657.31;4457527;32;35221;-73
2023/10/08 08:02:38;;;;;;;13.95;3.65;;;;;;;24.17;38.30;99664.69;4483896;32;34216;-75
2023/10/08 08:05:07;;;;;;;11.23;3.60;;;;;;;24.15;38.45;99666.78;4482328;32;34349;-76
2023/10/08 08:07:35;;;;;;;10.27;4.15;;;;;;;24.14;38.66;99655.06;4482390;32;32982;-76
2023/10/08 08:10:10;;;;;;;6.93;3.12;;;;;;;24.18;38.68;99661.72;4483446;32;33262;-73
2023/10/08 08:12:39;;;;;;;11.90;3.90;;;;;;;24.21;38.62;99656.88;4483692;32;33988;-75
2023/10/08 08:15:14;;;;;;;10.57;3.40;;;;;;;24.23;38.59;99652.81;4483774;32;34243;-74
2023/10/08 08:17:43;;;;;;;15.23;3.65;;;;;;;24.25;38.58;99645.25;4483930;32;32979;-75
2023/10/08 08:20:18;;;;;;;11.98;3.60;;;;;;;24.27;38.63;99656.75;4456581;32;32802;-74
2023/10/08 08:22:49;;;;;;;9.57;3.28;;;;;;;24.27;38.65;99662.19;4483973;32;34074;-75
2023/10/08 08:25:33;;;;;;;10.30;3.47;;;;;;;24.24;38.78;99670.00;4482193;32;33934;-74
2023/10/08 08:28:06;;;;;;;7.72;2.83;;;;;;;24.22;38.84;99658.53;4483885;32;34182;-75
2023/10/08 08:30:36;;;;;;;11.40;3.78;;;;;;;24.19;38.81;99674.25;4483711;32;34624;-73
2023/10/08 08:33:10;;;;;;;9.95;3.42;;;;;;;24.18;38.66;99669.88;4483587;32;34881;-66
2023/10/08 08:35:39;;;;;;;9.77;3.87;;;;;;;24.18;38.70;99656.25;4483524;32;34467;-66
2023/10/08 08:38:08;;;;;;;11.00;3.45;;;;;;;24.21;38.61;99665.03;4483510;32;33389;-66
2023/10/08 08:40:36;;;;;;;9.70;4.07;;;;;;;24.22;38.48;99675.69;4487395;31;34772;-72
2023/10/08 08:43:05;;;;;;;10.60;3.40;;;;;;;24.25;38.43;99668.94;4483720;32;33874;-75
2023/10/08 08:45:33;;;;;;;14.95;3.75;;;;;;;24.23;38.41;99671.09;4456547;32;34494;-69
2023/10/08 08:48:01;;;;;;;8.32;3.58;;;;;;;24.24;38.42;99656.38;4483476;32;34295;-75
2023/10/08 08:50:29;;;;;;;7.07;3.28;;;;;;;24.25;38.45;99652.56;4468272;32;32904;-77
2023/10/08 08:52:58;;;;;;;9.00;3.83;;;;;;;24.25;38.32;99661.62;4469814;32;35024;-75
2023/10/08 08:55:27;;;;;;;7.22;3.05;;;;;;;24.25;38.19;99661.62;4482752;32;34585;-72
2023/10/08 08:57:55;;;;;;;11.90;3.30;;;;;;;24.26;38.11;99667.91;4478499;32;34088;-76
2023/10/08 09:00:28;;;;;;;8.73;3.83;;;;;;;24.29;38.23;99660.06;4468856;32;33230;-74
2023/10/08 09:02:55;;;;;;;10.57;4.12;;;;;;;24.29;38.19;99660.06;4482210;32;34665;-74
2023/10/08 09:05:25;;;;;;;9.15;3.00;;;;;;;24.33;38.24;99657.69;4469319;32;34489;-75
2023/10/08 09:07:59;;;;;;;9.18;3.53;;;;;;;24.37;38.10;99658.91;4482156;32;33689;-75
2023/10/08 09:10:27;;;;;;;13.73;3.75;;;;;;;24.40;38.08;99669.34;4482209;32;33583;-76
2023/10/08 09:12:58;;;;;;;12.00;3.37;;;;;;;24.42;38.18;99676.22;4482051;32;34391;-75
2023/10/08 09:15:28;;;;;;;8.57;3.55;;;;;;;24.43;38.25;99690.69;4477071;32;33486;-75
2023/10/08 09:17:56;;;;;;;8.52;3.22;;;;;;;24.44;38.37;99692.38;4456327;32;34037;-68
2023/10/08 09:20:23;;;;;;;9.65;3.28;;;;;;;24.46;38.41;99698.41;4469019;32;34695;-72
2023/10/08 09:23:11;;;;;;;11.23;3.80;;;;;;;24.47;38.52;99708.25;4456570;32;33726;-68
2023/10/08 09:25:42;;;;;;;17.30;3.47;;;;;;;24.48;38.42;99709.06;4457961;32;33965;-74
2023/10/08 09:28:12;;;;;;;9.18;3.05;;;;;;;24.46;38.50;99714.78;4479492;32;34243;-70
2023/10/08 09:30:41;;;;;;;9.88;3.60;;;;;;;24.47;38.61;99730.06;4480169;32;34045;-71
2023/10/08 09:33:10;;;;;;;9.32;3.33;;;;;;;24.49;38.64;99740.75;4470435;32;33876;-64
2023/10/08 09:35:38;;;;;;;13.73;3.72;;;;;;;24.48;38.69;99749.97;4483307;32;33467;-69
2023/10/08 09:38:10;;;;;;;10.25;3.83;;;;;;;24.49;38.67;99749.78;4461266;32;33080;-69
2023/10/08 09:40:41;;;;;;;11.15;3.10;;;;;;;24.49;38.72;99762.59;4483266;32;34641;-69
2023/10/08 09:43:15;;;;;;;8.95;3.58;;;;;;;24.49;38.78;99768.88;4467307;32;33382;-66
2023/10/08 09:46:36;;;;;;;9.25;3.17;;;;;;;24.49;38.78;99762.59;4460275;32;34433;-69
2023/10/08 09:49:07;;;;;;;11.40;3.47;;;;;;;24.51;38.78;99777.63;4467997;32;32965;-70
2023/10/08 09:51:39;;;;;;;10.00;3.37;;;;;;;24.50;38.87;99759.59;4477060;32;33931;-67
2023/10/08 09:54:25;;;;;;;8.83;2.87;;;;;;;24.47;38.92;99765.53;4483481;32;33919;-67
2023/10/08 09:56:53;;;;;;;9.55;3.12;;;;;;;24.48;38.94;99772.66;4483424;32;33895;-71
2023/10/08 09:59:21;;;;;;;14.15;3.40;;;;;;;24.50;38.99;99775.16;4470887;32;33471;-70
2023/10/08 10:01:48;;;;;;;9.45;3.40;;;;;;;24.50;39.02;99770.53;4484059;32;33805;-69
2023/10/08 10:04:31;;;;;;;13.48;3.70;;;;;;;24.50;39.06;99783.31;4483575;32;34055;-68
2023/10/08 10:07:12;;;;;;;8.43;3.30;;;;;;;24.49;39.15;99801.59;4471498;32;32551;-71
2023/10/08 10:09:47;;;;;;;10.90;3.58;;;;;;;24.46;39.22;99821.13;4471954;32;33924;-72
2023/10/08 10:12:19;;;;;;;8.07;3.22;;;;;;;24.45;39.32;99829.56;4484588;32;33941;-71
2023/10/08 10:14:48;;;;;;;17.92;3.72;;;;;;;24.45;39.32;99841.31;4470547;32;33811;-72
2023/10/08 10:17:20;;;;;;;10.60;3.78;;;;;;;24.46;39.40;99861.22;4470775;32;34557;-68
2023/10/08 10:20:13;;;;;;;10.55;3.42;;;;;;;24.45;39.42;99856.84;4472846;32;33630;-69
2023/10/08 10:22:43;;;;;;;9.20;3.33;;;;;;;24.39;39.71;99853.16;4471157;32;33052;-70
2023/10/08 10:25:17;;;;;;;;;;;;;;;24.38;39.61;99838.66;4483709;32;33353;-69
2023/10/08 10:27:51;;;;;;;11.38;3.10;;;;;;;24.48;39.40;99842.72;4483437;32;33693;-72
2023/10/08 10:30:20;;;;;;;9.77;3.60;;;;;;;24.40;39.60;99835.72;4484483;32;33415;-73
2023/10/08 10:33:08;;;;;;;11.25;3.67;;;;;;;24.36;39.74;99846.25;4484894;31;33596;-71
2023/10/08 10:35:52;;;;;;;13.48;4.12;;;;;;;24.38;39.82;99829.66;4483100;32;33885;-70
2023/10/08 10:38:22;;;;;;;9.93;3.33;;;;;;;24.38;39.88;99821.47;4483795;32;33702;-69
2023/10/08 10:40:56;;;;;;;7.12;2.70;;;;;;;24.38;39.93;99835.94;4483858;32;32664;-71
2023/10/08 10:43:52;;;;;;;8.00;2.80;;;;;;;24.39;39.93;99842.25;4473714;32;33153;-72
2023/10/08 10:46:30;;;;;;;9.95;3.00;;;;;;;24.42;39.93;99850.75;4484159;32;33718;-69
2023/10/08 10:49:21;;;;;;;6.53;3.08;;;;;;;24.41;39.97;99860.03;4464501;32;34599;-73
2023/10/08 10:51:52;;;;;;;5.30;2.80;;;;;;;24.43;39.94;99852.47;4483130;32;32927;-69
2023/10/08 10:54:23;;;;;;;7.78;2.97;;;;;;;24.43;39.95;99844.28;4458374;32;32824;-69
2023/10/08 10:57:05;;;;;;;8.75;3.28;;;;;;;24.43;39.93;99851.59;4463586;31;32779;-71
2023/10/08 10:59:37;;;;;;;6.22;2.95;;;;;;;24.43;39.96;99863.37;4500260;31;34192;-73
2023/10/08 11:02:40;;;;;;;6.15;2.80;;;;;;;24.43;39.98;99874.28;4488383;31;33201;-72
2023/10/08 11:05:19;;;;;;;7.22;2.62;;;;;;;24.46;39.94;99880.31;4478676;31;34754;-63
2023/10/08 11:07:48;;;;;;;7.30;3.10;;;;;;;24.46;39.93;99878.41;4482554;32;33727;-64
2023/10/08 11:10:16;;;;;;;7.47;2.80;;;;;;;24.45;39.91;99884.94;4460472;32;32818;-64
2023/10/08 11:12:46;;;;;;;6.50;2.72;;;;;;;24.46;39.91;99889.31;4468609;32;33272;-64
2023/10/08 11:15:16;;;;;;;5.87;2.42;;;;;;;24.44;39.91;99891.47;4468919;32;34675;-64
2023/10/08 11:17:44;;;;;;;;;;;;;;;24.44;39.90;99899.66;4456032;32;33911;-65
2023/10/08 11:20:25;;;;;;;4.30;2.03;;;;;;;24.53;39.71;99909.19;4479792;32;34061;-64
2023/10/08 11:23:17;;;;;;;10.52;3.03;;;;;;;24.46;39.83;99916.59;4484831;32;33384;-64
2023/10/08 11:25:54;;;;;;;7.80;2.90;;;;;;;24.41;39.86;99908.28;4471071;32;34764;-64
2023/10/08 11:28:27;;;;;;;7.68;2.28;;;;;;;24.41;39.83;99892.75;4480724;32;34683;-66
2023/10/08 11:30:57;;;;;;;7.28;2.62;;;;;;;24.39;39.84;99896.78;4462885;32;33890;-67
2023/10/08 11:33:27;;;;;;;9.02;2.53;;;;;;;24.41;40.04;99903.66;4476448;32;33426;-65
2023/10/08 11:35:58;;;;;;;8.85;2.50;;;;;;;24.40;40.08;99898.44;4468677;32;33616;-63
2023/10/08 11:38:27;;;;;;;11.50;2.55;;;;;;;24.40;40.24;99912.91;4469729;32;34532;-64
2023/10/08 11:40:57;;;;;;;7.60;2.92;;;;;;;24.42;40.30;99904.50;4467323;32;33667;-67
2023/10/08 11:43:25;;;;;;;6.10;2.00;;;;;;;24.43;40.33;99908.87;4463581;32;33466;-66
2023/10/08 11:45:53;;;;;;;9.57;2.60;;;;;;;24.43;40.32;99912.47;4467614;32;34801;-67
2023/10/08 11:48:25;;;;;;;6.60;2.30;;;;;;;24.43;40.32;99914.31;4475090;32;33751;-66
2023/10/08 11:50:57;;;;;;;7.12;2.42;;;;;;;24.45;40.22;99916.84;4474850;32;33955;-63
2023/10/08 11:53:25;;;;;;;5.70;2.28;;;;;;;24.46;40.27;99921.22;4480022;32;33273;-62
2023/10/08 11:55:56;;;;;;;7.35;2.70;;;;;;;24.46;40.30;99927.50;4479073;32;33428;-63
2023/10/08 11:58:37;;;;;;;7.43;2.28;;;;;;;24.46;40.29;99916.59;4484087;32;34778;-62
2023/10/08 12:01:06;;;;;;;7.25;2.08;;;;;;;24.48;40.03;99924.53;4483677;32;33939;-65
2023/10/08 12:03:34;;;;;;;5.30;2.03;;;;;;;24.48;39.64;99927.28;4484064;32;34385;-63
2023/10/08 12:06:05;;;;;;;4.57;1.70;;;;;;;24.48;39.52;99930.88;4484042;32;33953;-62
2023/10/08 12:08:39;;;;;;;;;;;;;;;24.46;39.49;99938.44;4471245;32;33793;-62
2023/10/08 12:11:11;;;;;;;6.20;1.70;;;;;;;24.56;39.20;99959.69;4467433;32;33997;-62
2023/10/08 12:13:46;;;;;;;4.50;1.25;;;;;;;24.47;39.24;99958.34;4476979;32;32992;-64
2023/10/08 12:16:23;;;;;;;3.20;1.20;;;;;;;24.43;39.16;99957.97;4482812;32;33653;-62
2023/10/08 12:18:58;;;;;;;2.80;1.40;;;;;;;24.42;39.03;99973.50;4484119;32;33649;-62
2023/10/08 12:21:29;;;;;;;3.03;1.30;;;;;;;24.40;38.96;99970.19;4470638;32;33865;-62
2023/10/08 12:23:58;;;;;;;4.03;1.40;;;;;;;24.40;38.81;99977.53;4479598;32;34139;-62
2023/10/08 12:26:25;;;;;;;4.10;1.48;;;;;;;24.40;38.69;99980.25;4464920;32;33186;-62
2023/10/08 12:28:55;;;;;;;3.05;0.90;;;;;;;24.39;38.65;99975.88;4481032;32;33962;-62
2023/10/08 12:31:23;;;;;;;2.67;1.12;;;;;;;24.39;38.47;99978.59;4468452;32;33903;-62
2023/10/08 12:33:56;;;;;;;3.22;1.00;;;;;;;24.39;38.42;99981.34;4467857;32;34191;-62
2023/10/08 12:36:26;;;;;;;4.03;0.90;;;;;;;24.39;38.26;99986.78;4466567;32;34563;-65
2023/10/08 12:38:57;;;;;;;2.75;1.00;;;;;;;24.39;38.13;99993.06;4454440;32;33649;-65
2023/10/08 12:41:31;;;;;;;5.87;1.20;;;;;;;24.40;37.87;99999.34;4478493;31;34473;-67
2023/10/08 12:43:59;;;;;;;8.65;1.25;;;;;;;24.39;37.97;100001.25;4482141;32;33752;-65
2023/10/08 12:46:30;;;;;;;4.57;1.48;;;;;;;24.38;37.91;100013.19;4481444;32;32801;-64
2023/10/08 12:49:01;;;;;;;13.48;1.48;;;;;;;24.37;38.05;100014.25;4481803;32;33863;-64
2023/10/08 12:51:32;;;;;;;9.77;1.25;;;;;;;24.36;37.95;100014.47;4481590;32;33335;-64
2023/10/08 12:54:06;;;;;;;2.03;0.90;;;;;;;24.36;37.75;100012.59;4476402;32;33227;-64
2023/10/08 12:56:48;;;;;;;1.83;1.00;;;;;;;24.34;37.81;100017.44;4480246;32;34584;-66
2023/10/08 12:59:23;;;;;;;2.58;0.82;;;;;;;24.35;37.75;100029.19;4468945;32;34449;-63
2023/10/08 13:01:55;;;;;;;2.00;0.70;;;;;;;24.33;37.63;100034.84;4483089;32;33885;-65
2023/10/08 13:04:34;;;;;;;4.65;1.12;;;;;;;24.32;37.68;100038.62;4476457;32;33518;-65
2023/10/08 13:07:04;;;;;;;2.28;0.80;;;;;;;24.31;37.59;100042.41;4483384;32;34028;-68
2023/10/08 13:09:36;;;;;;;1.62;0.80;;;;;;;24.32;37.46;100052.25;4467242;32;33793;-68
2023/10/08 13:12:05;;;;;;;5.50;1.02;;;;;;;24.31;37.35;100052.50;4478954;32;33869;-64
2023/10/08 13:14:34;;;;;;;2.37;0.88;;;;;;;24.30;37.29;100048.94;4481886;32;34301;-67
2023/10/08 13:17:04;;;;;;;2.45;0.90;;;;;;;24.30;37.16;100057.13;4480939;32;33865;-65
2023/10/08 13:19:33;;;;;;;2.73;1.10;;;;;;;24.30;37.06;100067.19;4481241;32;33634;-65
2023/10/08 13:22:06;;;;;;;3.37;0.80;;;;;;;24.30;36.87;100069.94;4483350;32;33800;-65
2023/10/08 13:24:36;;;;;;;1.15;0.73;;;;;;;24.29;36.88;100074.53;4481586;32;31896;-67